Time,TemperatureF,DewpointF,PressureIn,WindDirection,WindDirectionDegrees,WindSpeedMPH,WindSpeedGustMPH,Humidity,HourlyPrecipIn,Conditions,Clouds,dailyrainin,SoftwareType,DateUTC
2013-05-10 00:03:00,62.0,-99.9,-100.00,West,259,4.0,5.0,-999,0.00,,,1.01,,2013-05-10 05:03:00,
2013-05-10 00:12:00,62.0,-99.9,-100.00,West,276,6.0,8.0,-999,0.00,,,1.01,,2013-05-10 05:12:00,
2013-05-10 00:22:00,62.0,-99.9,-100.00,West,276,6.0,8.0,-999,0.00,,,1.01,,2013-05-10 05:22:00,
2013-05-10 00:32:00,62.0,-99.9,-100.00,West,276,6.0,8.0,-999,0.00,,,1.01,,2013-05-10 05:32:00,
2013-05-10 00:42:00,61.0,-99.9,-100.00,West,262,7.0,9.0,-999,0.00,,,1.01,,2013-05-10 05:42:00,
2013-05-10 00:52:00,61.0,-99.9,-100.00,West,262,7.0,9.0,-999,0.00,,,1.01,,2013-05-10 05:52:00,
2013-05-10 01:02:00,61.0,-99.9,-100.00,West,262,7.0,9.0,-999,0.00,,,1.01,,2013-05-10 06:02:00,
2013-05-10 01:12:00,61.0,-99.9,-100.00,WNW,289,10.0,12.0,-999,0.00,,,1.01,,2013-05-10 06:12:00,
2013-05-10 01:22:00,61.0,-99.9,-100.00,WNW,289,10.0,12.0,-999,0.00,,,1.01,,2013-05-10 06:22:00,
2013-05-10 01:32:00,61.0,-99.9,-100.00,WNW,289,10.0,12.0,-999,0.00,,,1.01,,2013-05-10 06:32:00,
2013-05-10 01:40:00,59.0,-99.9,-100.00,WNW,287,11.0,13.0,-999,0.00,,,1.01,,2013-05-10 06:40:00,
2013-05-10 01:42:00,60.0,-99.9,-100.00,WNW,294,11.0,15.0,-999,0.00,,,1.01,,2013-05-10 06:42:00,
2013-05-10 01:52:00,60.0,-99.9,-100.00,WNW,294,11.0,15.0,-999,0.00,,,1.01,,2013-05-10 06:52:00,
2013-05-10 02:02:00,60.0,-99.9,-100.00,WNW,294,11.0,15.0,-999,0.00,,,1.01,,2013-05-10 07:02:00,
2013-05-10 02:12:00,59.0,-99.9,-100.00,WNW,287,11.0,13.0,-999,0.00,,,1.01,,2013-05-10 07:12:00,
2013-05-10 02:22:00,59.0,-99.9,-100.00,WNW,287,11.0,13.0,-999,0.00,,,1.01,,2013-05-10 07:22:00,
2013-05-10 02:32:00,59.0,-99.9,-100.00,WNW,287,11.0,13.0,-999,0.00,,,1.01,,2013-05-10 07:32:00,
2013-05-10 03:12:00,59.0,-99.9,-100.00,West,267,6.0,8.0,-999,0.00,,,1.01,,2013-05-10 08:12:00,
2013-05-10 03:22:00,59.0,-99.9,-100.00,West,267,6.0,8.0,-999,0.00,,,1.01,,2013-05-10 08:22:00,
2013-05-10 03:33:00,59.0,-99.9,-100.00,West,267,6.0,8.0,-999,0.00,,,1.01,,2013-05-10 08:33:00,
2013-05-10 03:42:00,59.0,-99.9,-100.00,West,259,7.0,9.0,-999,0.00,,,1.00,,2013-05-10 08:42:00,
2013-05-10 03:52:00,59.0,-99.9,-100.00,West,259,7.0,9.0,-999,0.00,,,1.00,,2013-05-10 08:52:00,
2013-05-10 04:02:00,59.0,-99.9,-100.00,West,259,7.0,9.0,-999,0.00,,,1.00,,2013-05-10 09:02:00,
2013-05-10 04:11:00,59.0,-99.9,-100.00,West,281,7.0,9.0,-999,0.01,,,1.01,,2013-05-10 09:11:00,
2013-05-10 04:22:00,59.0,-99.9,-100.00,West,281,7.0,9.0,-999,0.01,,,1.01,,2013-05-10 09:22:00,
2013-05-10 04:33:00,59.0,-99.9,-100.00,West,281,7.0,9.0,-999,0.01,,,1.01,,2013-05-10 09:33:00,
2013-05-10 04:43:00,55.0,-99.9,-100.00,NNE,14,7.0,11.0,-999,0.02,,,1.02,,2013-05-10 09:43:00,
2013-05-10 04:53:00,55.0,-99.9,-100.00,NNE,14,7.0,11.0,-999,0.02,,,1.02,,2013-05-10 09:53:00,
2013-05-10 05:03:00,55.0,-99.9,-100.00,NNE,14,7.0,11.0,-999,0.02,,,1.02,,2013-05-10 10:03:00,
2013-05-10 05:12:00,54.0,-99.9,-100.00,NNW,342,5.0,9.0,-999,0.01,,,1.02,,2013-05-10 10:12:00,
2013-05-10 05:23:00,54.0,-99.9,-100.00,NNW,342,5.0,9.0,-999,0.01,,,1.02,,2013-05-10 10:23:00,
2013-05-10 05:33:00,54.0,-99.9,-100.00,NNW,342,5.0,9.0,-999,0.01,,,1.02,,2013-05-10 10:33:00,
2013-05-10 05:42:00,54.0,-99.9,-100.00,North,352,6.0,11.0,-999,0.00,,,1.01,,2013-05-10 10:42:00,
2013-05-10 05:53:00,54.0,-99.9,-100.00,North,352,6.0,11.0,-999,0.00,,,1.01,,2013-05-10 10:53:00,
2013-05-10 06:02:00,54.0,-99.9,-100.00,North,352,6.0,11.0,-999,0.00,,,1.01,,2013-05-10 11:02:00,
2013-05-10 06:12:00,52.0,-99.9,-100.00,North,5,6.0,8.0,-999,0.00,,,1.00,,2013-05-10 11:12:00,
2013-05-10 06:22:00,52.0,-99.9,-100.00,North,5,6.0,8.0,-999,0.00,,,1.00,,2013-05-10 11:22:00,
2013-05-10 06:32:00,52.0,-99.9,-100.00,North,5,6.0,8.0,-999,0.00,,,1.00,,2013-05-10 11:32:00,
2013-05-10 06:42:00,52.0,-99.9,-100.00,NNW,347,6.0,11.0,-999,0.00,,,0.92,,2013-05-10 11:42:00,
2013-05-10 06:52:00,52.0,-99.9,-100.00,NNW,347,6.0,11.0,-999,0.00,,,0.92,,2013-05-10 11:52:00,
2013-05-10 07:02:00,52.0,-99.9,-100.00,NNW,347,6.0,11.0,-999,0.00,,,0.92,,2013-05-10 12:02:00,
2013-05-10 07:12:00,52.0,-99.9,-100.00,North,359,5.0,8.0,-999,0.00,,,0.85,,2013-05-10 12:12:00,
2013-05-10 07:22:00,52.0,-99.9,-100.00,North,359,5.0,8.0,-999,0.00,,,0.85,,2013-05-10 12:22:00,
2013-05-10 07:32:00,52.0,-99.9,-100.00,North,359,5.0,8.0,-999,0.00,,,0.85,,2013-05-10 12:32:00,
2013-05-10 07:42:00,51.0,-99.9,-100.00,North,1,7.0,11.0,-999,0.00,,,0.83,,2013-05-10 12:42:00,
2013-05-10 07:52:00,51.0,-99.9,-100.00,North,1,7.0,11.0,-999,0.00,,,0.83,,2013-05-10 12:52:00,
2013-05-10 08:01:00,51.0,-99.9,-100.00,North,1,7.0,11.0,-999,0.00,,,0.83,,2013-05-10 13:01:00,
2013-05-10 08:11:00,51.0,-99.9,-100.00,North,5,5.0,9.0,-999,0.00,,,-99.99,,2013-05-10 13:11:00,
2013-05-10 08:21:00,51.0,-99.9,-100.00,North,5,5.0,9.0,-999,0.00,,,-99.99,,2013-05-10 13:21:00,
2013-05-10 08:32:00,51.0,-99.9,-100.00,North,5,5.0,9.0,-999,0.00,,,-99.99,,2013-05-10 13:32:00,
2013-05-10 08:42:00,51.0,-99.9,-100.00,North,358,6.0,9.0,-999,0.00,,,0.82,,2013-05-10 13:42:00,
2013-05-10 08:52:00,51.0,-99.9,-100.00,North,358,6.0,9.0,-999,0.00,,,0.82,,2013-05-10 13:52:00,
2013-05-10 09:02:00,51.0,-99.9,-100.00,North,358,6.0,9.0,-999,0.00,,,0.82,,2013-05-10 14:02:00,
2013-05-10 09:11:00,50.0,-99.9,-100.00,North,356,5.0,12.0,-999,0.00,,,0.82,,2013-05-10 14:11:00,
2013-05-10 09:22:00,50.0,-99.9,-100.00,North,356,5.0,12.0,-999,0.00,,,0.82,,2013-05-10 14:22:00,
2013-05-10 09:32:00,50.0,-99.9,-100.00,North,356,5.0,12.0,-999,0.00,,,0.82,,2013-05-10 14:32:00,
2013-05-10 09:40:00,51.0,-99.9,-100.00,North,353,6.0,13.0,-999,0.00,,,0.82,,2013-05-10 14:40:00,
2013-05-10 09:42:00,51.0,-99.9,-100.00,North,352,5.0,9.0,-999,0.00,,,0.82,,2013-05-10 14:42:00,
2013-05-10 09:52:00,51.0,-99.9,-100.00,North,352,5.0,9.0,-999,0.00,,,0.82,,2013-05-10 14:52:00,
2013-05-10 10:02:00,51.0,-99.9,-100.00,North,352,5.0,9.0,-999,0.00,,,0.82,,2013-05-10 15:02:00,
2013-05-10 10:21:00,-999.0,-99.9,-100.00,North,353,6.0,13.0,-999,0.00,,,0.82,,2013-05-10 15:21:00,
2013-05-10 10:32:00,51.0,-99.9,-100.00,North,353,6.0,13.0,-999,0.00,,,0.82,,2013-05-10 15:32:00,
2013-05-10 11:12:00,51.0,-99.9,-100.00,NNE,33,3.0,7.0,-999,0.00,,,0.82,,2013-05-10 16:12:00,
2013-05-10 11:23:00,51.0,-99.9,-100.00,NNE,33,3.0,7.0,-999,0.00,,,0.82,,2013-05-10 16:23:00,
2013-05-10 11:33:00,51.0,-99.9,-100.00,NNE,33,3.0,7.0,-999,0.00,,,0.82,,2013-05-10 16:33:00,
2013-05-10 11:43:00,51.0,-99.9,-100.00,North,351,5.0,11.0,-999,0.00,,,0.82,,2013-05-10 16:43:00,
2013-05-10 11:53:00,51.0,-99.9,-100.00,North,351,5.0,11.0,-999,0.00,,,0.82,,2013-05-10 16:53:00,
2013-05-10 12:02:00,51.0,-99.9,-100.00,North,351,5.0,11.0,-999,0.00,,,0.82,,2013-05-10 17:02:00,
2013-05-10 12:10:00,-999.0,-99.9,-100.00,NNW,345,7.0,10.0,-999,0.00,,,0.82,,2013-05-10 17:10:00,
2013-05-10 12:12:00,52.0,-99.9,-100.00,NE,34,5.0,10.0,-999,0.00,,,0.82,,2013-05-10 17:12:00,
2013-05-10 12:22:00,52.0,-99.9,-100.00,NE,34,5.0,10.0,-999,0.00,,,0.82,,2013-05-10 17:22:00,
2013-05-10 12:32:00,52.0,-99.9,-100.00,NE,34,5.0,10.0,-999,0.00,,,0.82,,2013-05-10 17:32:00,
2013-05-10 12:42:00,52.0,-99.9,-100.00,NNW,345,7.0,10.0,-999,0.00,,,0.82,,2013-05-10 17:42:00,
2013-05-10 12:52:00,52.0,-99.9,-100.00,NNW,345,7.0,10.0,-999,0.00,,,0.82,,2013-05-10 17:52:00,
2013-05-10 13:12:00,52.0,-99.9,-100.00,North,2,6.0,9.0,-999,0.00,,,0.82,,2013-05-10 18:12:00,
2013-05-10 13:22:00,52.0,-99.9,-100.00,North,2,6.0,9.0,-999,0.00,,,0.82,,2013-05-10 18:22:00,
2013-05-10 13:35:00,52.0,-99.9,-100.00,North,2,6.0,9.0,-999,0.00,,,0.82,,2013-05-10 18:35:00,
2013-05-10 13:43:00,53.0,-99.9,-100.00,North,4,8.0,15.0,-999,0.00,,,0.82,,2013-05-10 18:43:00,
2013-05-10 13:54:00,53.0,-99.9,-100.00,North,4,8.0,15.0,-999,0.00,,,0.82,,2013-05-10 18:54:00,
2013-05-10 14:02:00,53.0,-99.9,-100.00,North,4,8.0,15.0,-999,0.00,,,0.82,,2013-05-10 19:02:00,
2013-05-10 14:12:00,53.0,-99.9,-100.00,NNW,337,7.0,11.0,-999,0.00,,,0.82,,2013-05-10 19:12:00,
2013-05-10 14:22:00,53.0,-99.9,-100.00,NNW,337,7.0,11.0,-999,0.00,,,0.82,,2013-05-10 19:22:00,
2013-05-10 14:32:00,53.0,-99.9,-100.00,NNW,337,7.0,11.0,-999,0.00,,,0.82,,2013-05-10 19:32:00,
2013-05-10 14:42:00,53.0,-99.9,-100.00,North,3,6.0,15.0,-999,0.00,,,0.82,,2013-05-10 19:42:00,
2013-05-10 14:52:00,53.0,-99.9,-100.00,North,3,6.0,15.0,-999,0.00,,,0.82,,2013-05-10 19:52:00,
2013-05-10 15:02:00,53.0,-99.9,-100.00,North,3,6.0,15.0,-999,0.00,,,0.82,,2013-05-10 20:02:00,
2013-05-10 15:12:00,53.0,-99.9,-100.00,North,356,5.0,10.0,-999,0.00,,,0.82,,2013-05-10 20:12:00,
2013-05-10 15:22:00,53.0,-99.9,-100.00,North,356,5.0,10.0,-999,0.00,,,0.82,,2013-05-10 20:22:00,
2013-05-10 15:32:00,53.0,-99.9,-100.00,North,356,5.0,10.0,-999,0.00,,,0.82,,2013-05-10 20:32:00,
2013-05-10 15:40:00,54.0,-99.9,-100.00,North,353,3.0,5.0,-999,0.00,,,0.82,,2013-05-10 20:40:00,
2013-05-10 15:42:00,53.0,-99.9,-100.00,NNW,339,7.0,12.0,-999,0.00,,,0.82,,2013-05-10 20:42:00,
2013-05-10 15:52:00,53.0,-99.9,-100.00,NNW,339,7.0,12.0,-999,0.00,,,0.82,,2013-05-10 20:52:00,
2013-05-10 16:02:00,53.0,-99.9,-100.00,NNW,339,7.0,12.0,-999,0.00,,,0.82,,2013-05-10 21:02:00,
2013-05-10 16:11:00,54.0,-99.9,-100.00,North,353,3.0,5.0,-999,0.00,,,0.82,,2013-05-10 21:11:00,
2013-05-10 16:25:00,54.0,-99.9,-100.00,North,353,3.0,5.0,-999,0.00,,,0.82,,2013-05-10 21:25:00,
2013-05-10 16:32:00,54.0,-99.9,-100.00,North,353,3.0,5.0,-999,0.00,,,0.82,,2013-05-10 21:32:00,
2013-05-10 17:13:00,54.0,-99.9,-100.00,NW,316,11.0,14.0,-999,0.00,,,0.82,,2013-05-10 22:13:00,
2013-05-10 17:22:00,54.0,-99.9,-100.00,NW,316,11.0,14.0,-999,0.00,,,0.82,,2013-05-10 22:22:00,
2013-05-10 17:32:00,54.0,-99.9,-100.00,NW,316,11.0,14.0,-999,0.00,,,0.82,,2013-05-10 22:32:00,
2013-05-10 17:42:00,55.0,-99.9,-100.00,NNW,335,4.0,8.0,-999,0.00,,,0.82,,2013-05-10 22:42:00,
2013-05-10 17:53:00,55.0,-99.9,-100.00,NNW,335,4.0,8.0,-999,0.00,,,0.82,,2013-05-10 22:53:00,
2013-05-10 18:02:00,55.0,-99.9,-100.00,NNW,335,4.0,8.0,-999,0.00,,,0.82,,2013-05-10 23:02:00,
2013-05-10 18:12:00,55.0,-99.9,-100.00,NNW,345,5.0,9.0,-999,0.00,,,0.06,,2013-05-10 23:12:00,
2013-05-10 18:22:00,55.0,-99.9,-100.00,NNW,345,5.0,9.0,-999,0.00,,,0.06,,2013-05-10 23:22:00,
2013-05-10 18:33:00,55.0,-99.9,-100.00,NNW,345,5.0,9.0,-999,0.00,,,0.06,,2013-05-10 23:33:00,
2013-05-10 18:42:00,55.0,-99.9,-100.00,NNW,346,3.0,5.0,-999,0.00,,,0.02,,2013-05-10 23:42:00,
2013-05-10 18:52:00,55.0,-99.9,-100.00,NNW,346,3.0,5.0,-999,0.00,,,0.02,,2013-05-10 23:52:00,
2013-05-10 19:02:00,55.0,-99.9,-100.00,NNW,346,3.0,5.0,-999,0.00,,,0.02,,2013-05-11 00:02:00,
2013-05-10 19:11:00,55.0,-99.9,-100.00,North,11,2.0,6.0,-999,0.00,,,0.02,,2013-05-11 00:11:00,
2013-05-10 19:22:00,55.0,-99.9,-100.00,North,11,2.0,6.0,-999,0.00,,,0.02,,2013-05-11 00:22:00,
2013-05-10 19:32:00,55.0,-99.9,-100.00,North,11,2.0,6.0,-999,0.00,,,0.02,,2013-05-11 00:32:00,
2013-05-10 19:42:00,55.0,-99.9,-100.00,North,351,1.0,3.0,-999,0.00,,,0.02,,2013-05-11 00:42:00,
2013-05-10 19:52:00,55.0,-99.9,-100.00,North,351,1.0,3.0,-999,0.00,,,0.02,,2013-05-11 00:52:00,
2013-05-10 20:01:00,55.0,-99.9,-100.00,North,351,1.0,3.0,-999,0.00,,,0.02,,2013-05-11 01:01:00,
2013-05-10 20:11:00,55.0,-99.9,-100.00,North,-999,1.0,2.0,-999,0.00,,,0.02,,2013-05-11 01:11:00,
2013-05-10 20:22:00,55.0,-99.9,-100.00,North,-999,1.0,2.0,-999,0.00,,,0.02,,2013-05-11 01:22:00,
2013-05-10 20:32:00,55.0,-99.9,-100.00,ESE,114,2.0,3.0,-999,0.00,,,0.02,,2013-05-11 01:32:00,
2013-05-10 20:42:00,55.0,-99.9,-100.00,ESE,114,2.0,3.0,-999,0.00,,,0.02,,2013-05-11 01:42:00,
2013-05-10 20:52:00,55.0,-99.9,-100.00,ESE,114,2.0,3.0,-999,0.00,,,0.02,,2013-05-11 01:52:00,
2013-05-10 21:02:00,55.0,-99.9,-100.00,ESE,114,2.0,3.0,-999,0.00,,,0.02,,2013-05-11 02:02:00,
2013-05-10 21:12:00,53.0,-99.9,-100.00,NNE,33,0.0,0.0,-999,0.00,,,0.02,,2013-05-11 02:12:00,
2013-05-10 21:22:00,53.0,-99.9,-100.00,NNE,33,0.0,0.0,-999,0.00,,,0.02,,2013-05-11 02:22:00,
2013-05-10 21:32:00,53.0,-99.9,-100.00,NNE,33,0.0,0.0,-999,0.00,,,0.02,,2013-05-11 02:32:00,
2013-05-10 21:42:00,54.0,-99.9,-100.00,ESE,114,2.0,3.0,-999,0.00,,,0.02,,2013-05-11 02:42:00,
2013-05-10 21:52:00,54.0,-99.9,-100.00,ESE,114,2.0,3.0,-999,0.00,,,0.02,,2013-05-11 02:52:00,
2013-05-10 22:01:00,54.0,-99.9,-100.00,ESE,114,2.0,3.0,-999,0.00,,,0.02,,2013-05-11 03:01:00,
2013-05-10 22:11:00,53.0,-99.9,-100.00,ESE,105,0.0,1.0,-999,0.00,,,0.02,,2013-05-11 03:11:00,
2013-05-10 22:22:00,53.0,-99.9,-100.00,ESE,105,0.0,1.0,-999,0.00,,,0.02,,2013-05-11 03:22:00,
2013-05-10 22:33:00,53.0,-99.9,-100.00,ESE,105,0.0,1.0,-999,0.00,,,0.02,,2013-05-11 03:33:00,
2013-05-10 22:43:00,53.0,-99.9,-100.00,NNW,332,2.0,3.0,-999,0.00,,,0.02,,2013-05-11 03:43:00,
2013-05-10 22:53:00,53.0,-99.9,-100.00,NNW,332,2.0,3.0,-999,0.00,,,0.02,,2013-05-11 03:53:00,
2013-05-10 23:03:00,53.0,-99.9,-100.00,NNW,332,2.0,3.0,-999,0.00,,,0.02,,2013-05-11 04:03:00,
2013-05-10 23:12:00,53.0,-99.9,-100.00,WSW,251,3.0,4.0,-999,0.00,,,0.02,,2013-05-11 04:12:00,
2013-05-10 23:23:00,53.0,-99.9,-100.00,WSW,251,3.0,4.0,-999,0.00,,,0.02,,2013-05-11 04:23:00,
2013-05-10 23:33:00,53.0,-99.9,-100.00,WSW,251,3.0,4.0,-999,0.00,,,0.02,,2013-05-11 04:33:00,
2013-05-10 23:43:00,53.0,-99.9,-100.00,WSW,239,4.0,4.0,-999,0.00,,,0.02,,2013-05-11 04:43:00,
2013-05-10 23:52:00,53.0,-99.9,-100.00,WSW,239,4.0,4.0,-999,0.00,,,0.02,,2013-05-11 04:52:00,